sensor_id;sensor_type;location;lat;lon;timestamp;P1;durP1;ratioP1;P2;durP2;ratioP2
45686;SDS011;31399;51.176;7.776;2022-09-09T00:04:33;3.78;;;0.77;;
45686;SDS011;31399;51.176;7.776;2022-09-09T00:12:15;2.25;;;0.43;;
45686;SDS011;31399;51.176;7.776;2022-09-09T00:14:56;3.70;;;0.65;;
45686;SDS011;31399;51.176;7.776;2022-09-09T00:20:32;3.95;;;0.80;;
45686;SDS011;31399;51.176;7.776;2022-09-09T00:28:26;3.00;;;0.88;;
45686;SDS011;31399;51.176;7.776;2022-09-09T00:30:53;1.75;;;0.73;;
45686;SDS011;31399;51.176;7.776;2022-09-09T00:33:22;2.35;;;0.77;;
45686;SDS011;31399;51.176;7.776;2022-09-09T00:35:51;4.40;;;0.52;;
45686;SDS011;31399;51.176;7.776;2022-09-09T00:38:23;2.15;;;0.60;;
45686;SDS011;31399;51.176;7.776;2022-09-09T00:40:56;4.30;;;0.75;;
45686;SDS011;31399;51.176;7.776;2022-09-09T00:48:42;2.05;;;0.45;;
45686;SDS011;31399;51.176;7.776;2022-09-09T00:51:26;7.22;;;0.68;;
45686;SDS011;31399;51.176;7.776;2022-09-09T01:08:00;5.00;;;0.60;;
45686;SDS011;31399;51.176;7.776;2022-09-09T01:13:20;4.70;;;0.80;;
45686;SDS011;31399;51.176;7.776;2022-09-09T01:15:51;2.20;;;0.68;;
45686;SDS011;31399;51.176;7.776;2022-09-09T01:18:26;3.83;;;0.60;;
45686;SDS011;31399;51.176;7.776;2022-09-09T01:20:59;5.15;;;0.50;;
45686;SDS011;31399;51.176;7.776;2022-09-09T01:26:49;3.78;;;1.10;;
45686;SDS011;31399;51.176;7.776;2022-09-09T01:29:18;3.08;;;1.27;;
45686;SDS011;31399;51.176;7.776;2022-09-09T01:34:29;2.85;;;0.77;;
45686;SDS011;31399;51.176;7.776;2022-09-09T01:39:33;4.63;;;0.73;;
45686;SDS011;31399;51.176;7.776;2022-09-09T01:42:01;3.78;;;0.63;;
45686;SDS011;31399;51.176;7.776;2022-09-09T01:44:28;4.95;;;0.90;;
45686;SDS011;31399;51.176;7.776;2022-09-09T01:46:56;4.75;;;0.85;;
45686;SDS011;31399;51.176;7.776;2022-09-09T01:49:23;5.47;;;1.13;;
45686;SDS011;31399;51.176;7.776;2022-09-09T01:51:51;2.90;;;1.02;;
45686;SDS011;31399;51.176;7.776;2022-09-09T01:54:20;4.35;;;0.80;;
45686;SDS011;31399;51.176;7.776;2022-09-09T01:56:59;4.97;;;1.10;;
45686;SDS011;31399;51.176;7.776;2022-09-09T02:08:07;4.83;;;0.90;;
45686;SDS011;31399;51.176;7.776;2022-09-09T02:13:13;5.45;;;1.13;;
45686;SDS011;31399;51.176;7.776;2022-09-09T02:15:46;3.88;;;0.85;;
45686;SDS011;31399;51.176;7.776;2022-09-09T02:18:14;3.38;;;0.90;;
45686;SDS011;31399;51.176;7.776;2022-09-09T02:20:44;3.75;;;0.80;;
45686;SDS011;31399;51.176;7.776;2022-09-09T02:23:12;2.58;;;0.68;;
45686;SDS011;31399;51.176;7.776;2022-09-09T02:25:39;6.05;;;1.20;;
45686;SDS011;31399;51.176;7.776;2022-09-09T02:28:07;6.03;;;1.38;;
45686;SDS011;31399;51.176;7.776;2022-09-09T02:30:35;5.50;;;1.00;;
45686;SDS011;31399;51.176;7.776;2022-09-09T02:33:03;3.17;;;1.08;;
45686;SDS011;31399;51.176;7.776;2022-09-09T02:35:32;6.93;;;1.10;;
45686;SDS011;31399;51.176;7.776;2022-09-09T02:38:04;1.33;;;0.90;;
45686;SDS011;31399;51.176;7.776;2022-09-09T02:40:32;1.50;;;0.73;;
45686;SDS011;31399;51.176;7.776;2022-09-09T02:42:59;2.17;;;0.63;;
45686;SDS011;31399;51.176;7.776;2022-09-09T02:45:27;2.80;;;1.48;;
45686;SDS011;31399;51.176;7.776;2022-09-09T02:50:47;7.28;;;1.20;;
45686;SDS011;31399;51.176;7.776;2022-09-09T02:53:23;4.72;;;1.27;;
45686;SDS011;31399;51.176;7.776;2022-09-09T02:55:58;4.25;;;1.00;;
45686;SDS011;31399;51.176;7.776;2022-09-09T02:58:29;3.65;;;1.15;;
45686;SDS011;31399;51.176;7.776;2022-09-09T03:00:56;2.60;;;1.30;;
45686;SDS011;31399;51.176;7.776;2022-09-09T03:03:24;6.55;;;1.52;;
45686;SDS011;31399;51.176;7.776;2022-09-09T03:05:50;5.95;;;1.30;;
45686;SDS011;31399;51.176;7.776;2022-09-09T03:08:17;6.85;;;1.30;;
45686;SDS011;31399;51.176;7.776;2022-09-09T03:10:44;6.15;;;1.20;;
45686;SDS011;31399;51.176;7.776;2022-09-09T03:13:11;5.75;;;1.48;;
45686;SDS011;31399;51.176;7.776;2022-09-09T03:15:39;4.60;;;1.55;;
45686;SDS011;31399;51.176;7.776;2022-09-09T03:18:05;3.95;;;1.15;;
45686;SDS011;31399;51.176;7.776;2022-09-09T03:20:32;3.67;;;0.88;;
45686;SDS011;31399;51.176;7.776;2022-09-09T03:22:59;2.78;;;1.40;;
45686;SDS011;31399;51.176;7.776;2022-09-09T03:25:26;5.60;;;1.58;;
45686;SDS011;31399;51.176;7.776;2022-09-09T03:27:53;3.13;;;1.40;;
45686;SDS011;31399;51.176;7.776;2022-09-09T03:30:21;6.40;;;1.33;;
45686;SDS011;31399;51.176;7.776;2022-09-09T03:32:48;2.72;;;1.40;;
45686;SDS011;31399;51.176;7.776;2022-09-09T03:35:15;3.80;;;0.93;;
45686;SDS011;31399;51.176;7.776;2022-09-09T03:37:42;2.10;;;0.85;;
45686;SDS011;31399;51.176;7.776;2022-09-09T03:40:08;4.50;;;1.23;;
45686;SDS011;31399;51.176;7.776;2022-09-09T03:42:37;2.70;;;1.10;;
45686;SDS011;31399;51.176;7.776;2022-09-09T03:45:07;7.80;;;1.17;;
45686;SDS011;31399;51.176;7.776;2022-09-09T03:47:35;6.25;;;1.30;;
45686;SDS011;31399;51.176;7.776;2022-09-09T03:50:02;2.47;;;1.00;;
45686;SDS011;31399;51.176;7.776;2022-09-09T03:52:30;5.90;;;1.05;;
45686;SDS011;31399;51.176;7.776;2022-09-09T03:54:56;4.45;;;1.30;;
45686;SDS011;31399;51.176;7.776;2022-09-09T03:57:23;5.53;;;1.13;;
45686;SDS011;31399;51.176;7.776;2022-09-09T03:59:50;2.97;;;0.98;;
45686;SDS011;31399;51.176;7.776;2022-09-09T04:02:16;2.60;;;0.98;;
45686;SDS011;31399;51.176;7.776;2022-09-09T04:04:43;3.80;;;1.65;;
45686;SDS011;31399;51.176;7.776;2022-09-09T04:07:09;8.18;;;1.40;;
45686;SDS011;31399;51.176;7.776;2022-09-09T04:09:37;4.40;;;1.10;;
45686;SDS011;31399;51.176;7.776;2022-09-09T04:12:04;2.97;;;1.27;;
45686;SDS011;31399;51.176;7.776;2022-09-09T04:14:32;6.45;;;1.38;;
45686;SDS011;31399;51.176;7.776;2022-09-09T04:16:58;4.18;;;1.42;;
45686;SDS011;31399;51.176;7.776;2022-09-09T04:19:26;2.83;;;1.08;;
45686;SDS011;31399;51.176;7.776;2022-09-09T04:21:52;5.47;;;1.33;;
45686;SDS011;31399;51.176;7.776;2022-09-09T04:24:19;3.20;;;1.50;;
45686;SDS011;31399;51.176;7.776;2022-09-09T04:26:45;4.45;;;1.75;;
45686;SDS011;31399;51.176;7.776;2022-09-09T04:29:13;5.10;;;2.03;;
45686;SDS011;31399;51.176;7.776;2022-09-09T04:31:39;7.03;;;1.67;;
45686;SDS011;31399;51.176;7.776;2022-09-09T04:34:11;6.38;;;1.90;;
45686;SDS011;31399;51.176;7.776;2022-09-09T04:36:38;4.55;;;1.52;;
45686;SDS011;31399;51.176;7.776;2022-09-09T04:39:06;5.88;;;1.55;;
45686;SDS011;31399;51.176;7.776;2022-09-09T04:41:33;4.95;;;1.60;;
45686;SDS011;31399;51.176;7.776;2022-09-09T04:44:03;2.78;;;1.20;;
45686;SDS011;31399;51.176;7.776;2022-09-09T04:46:30;5.03;;;1.92;;
45686;SDS011;31399;51.176;7.776;2022-09-09T04:48:56;6.15;;;1.60;;
45686;SDS011;31399;51.176;7.776;2022-09-09T04:51:23;12.45;;;1.60;;
45686;SDS011;31399;51.176;7.776;2022-09-09T04:53:50;3.25;;;1.30;;
45686;SDS011;31399;51.176;7.776;2022-09-09T04:56:17;5.57;;;1.80;;
45686;SDS011;31399;51.176;7.776;2022-09-09T04:58:44;6.13;;;1.60;;
45686;SDS011;31399;51.176;7.776;2022-09-09T05:03:43;3.03;;;1.30;;
45686;SDS011;31399;51.176;7.776;2022-09-09T05:06:15;7.85;;;1.30;;
45686;SDS011;31399;51.176;7.776;2022-09-09T05:08:43;5.40;;;1.50;;
45686;SDS011;31399;51.176;7.776;2022-09-09T05:11:13;6.80;;;1.77;;
45686;SDS011;31399;51.176;7.776;2022-09-09T05:13:42;7.15;;;1.65;;
45686;SDS011;31399;51.176;7.776;2022-09-09T05:16:09;5.35;;;1.08;;
45686;SDS011;31399;51.176;7.776;2022-09-09T05:18:38;5.25;;;1.70;;
45686;SDS011;31399;51.176;7.776;2022-09-09T05:21:05;3.95;;;1.13;;
45686;SDS011;31399;51.176;7.776;2022-09-09T05:23:33;6.47;;;1.50;;
45686;SDS011;31399;51.176;7.776;2022-09-09T05:26:00;8.95;;;1.85;;
45686;SDS011;31399;51.176;7.776;2022-09-09T05:28:27;4.00;;;1.25;;
45686;SDS011;31399;51.176;7.776;2022-09-09T05:30:55;4.43;;;1.20;;
45686;SDS011;31399;51.176;7.776;2022-09-09T05:33:27;4.97;;;1.05;;
45686;SDS011;31399;51.176;7.776;2022-09-09T05:36:03;3.22;;;1.13;;
45686;SDS011;31399;51.176;7.776;2022-09-09T05:38:32;3.90;;;1.30;;
45686;SDS011;31399;51.176;7.776;2022-09-09T05:40:59;5.93;;;1.13;;
45686;SDS011;31399;51.176;7.776;2022-09-09T05:43:26;3.58;;;1.30;;
45686;SDS011;31399;51.176;7.776;2022-09-09T05:48:38;10.73;;;1.80;;
45686;SDS011;31399;51.176;7.776;2022-09-09T05:51:07;3.67;;;1.48;;
45686;SDS011;31399;51.176;7.776;2022-09-09T05:53:35;4.32;;;1.50;;
45686;SDS011;31399;51.176;7.776;2022-09-09T05:56:03;4.05;;;1.92;;
45686;SDS011;31399;51.176;7.776;2022-09-09T05:58:31;4.53;;;1.42;;
45686;SDS011;31399;51.176;7.776;2022-09-09T06:01:02;2.92;;;1.27;;
45686;SDS011;31399;51.176;7.776;2022-09-09T06:03:30;2.38;;;1.70;;
45686;SDS011;31399;51.176;7.776;2022-09-09T06:06:00;2.67;;;0.82;;
45686;SDS011;31399;51.176;7.776;2022-09-09T06:08:28;5.90;;;0.90;;
45686;SDS011;31399;51.176;7.776;2022-09-09T06:11:00;2.47;;;1.30;;
45686;SDS011;31399;51.176;7.776;2022-09-09T06:13:29;5.03;;;0.98;;
45686;SDS011;31399;51.176;7.776;2022-09-09T06:15:56;5.30;;;1.33;;
45686;SDS011;31399;51.176;7.776;2022-09-09T06:18:23;3.83;;;1.02;;
45686;SDS011;31399;51.176;7.776;2022-09-09T06:20:53;11.20;;;1.30;;
45686;SDS011;31399;51.176;7.776;2022-09-09T06:23:20;3.53;;;1.38;;
45686;SDS011;31399;51.176;7.776;2022-09-09T06:25:47;6.43;;;1.05;;
45686;SDS011;31399;51.176;7.776;2022-09-09T06:28:15;5.18;;;1.77;;
45686;SDS011;31399;51.176;7.776;2022-09-09T06:30:41;5.05;;;1.50;;
45686;SDS011;31399;51.176;7.776;2022-09-09T06:33:08;6.13;;;1.10;;
45686;SDS011;31399;51.176;7.776;2022-09-09T06:35:35;2.70;;;1.15;;
45686;SDS011;31399;51.176;7.776;2022-09-09T06:38:02;4.93;;;0.95;;
45686;SDS011;31399;51.176;7.776;2022-09-09T06:40:29;7.75;;;1.42;;
45686;SDS011;31399;51.176;7.776;2022-09-09T06:42:59;9.35;;;1.00;;
45686;SDS011;31399;51.176;7.776;2022-09-09T06:45:27;7.10;;;1.00;;
45686;SDS011;31399;51.176;7.776;2022-09-09T06:47:54;3.00;;;0.73;;
45686;SDS011;31399;51.176;7.776;2022-09-09T06:50:21;3.70;;;0.93;;
45686;SDS011;31399;51.176;7.776;2022-09-09T06:52:48;5.68;;;0.80;;
45686;SDS011;31399;51.176;7.776;2022-09-09T06:55:14;4.65;;;0.95;;
45686;SDS011;31399;51.176;7.776;2022-09-09T06:57:42;11.27;;;1.35;;
45686;SDS011;31399;51.176;7.776;2022-09-09T07:00:09;4.13;;;0.70;;
45686;SDS011;31399;51.176;7.776;2022-09-09T07:02:37;4.25;;;0.80;;
45686;SDS011;31399;51.176;7.776;2022-09-09T07:05:05;4.15;;;0.77;;
45686;SDS011;31399;51.176;7.776;2022-09-09T07:07:32;4.22;;;0.80;;
45686;SDS011;31399;51.176;7.776;2022-09-09T07:09:59;5.93;;;0.95;;
45686;SDS011;31399;51.176;7.776;2022-09-09T07:12:25;4.85;;;0.95;;
45686;SDS011;31399;51.176;7.776;2022-09-09T07:14:52;2.40;;;0.80;;
45686;SDS011;31399;51.176;7.776;2022-09-09T07:17:19;3.17;;;0.70;;
45686;SDS011;31399;51.176;7.776;2022-09-09T07:19:45;6.28;;;0.80;;
45686;SDS011;31399;51.176;7.776;2022-09-09T07:22:12;7.63;;;0.95;;
45686;SDS011;31399;51.176;7.776;2022-09-09T07:24:38;3.53;;;1.27;;
45686;SDS011;31399;51.176;7.776;2022-09-09T07:27:05;4.32;;;0.75;;
45686;SDS011;31399;51.176;7.776;2022-09-09T07:29:31;2.75;;;0.85;;
45686;SDS011;31399;51.176;7.776;2022-09-09T07:31:58;7.13;;;1.08;;
45686;SDS011;31399;51.176;7.776;2022-09-09T07:34:25;7.40;;;0.90;;
45686;SDS011;31399;51.176;7.776;2022-09-09T07:36:52;4.97;;;1.40;;
45686;SDS011;31399;51.176;7.776;2022-09-09T07:39:18;5.43;;;1.40;;
45686;SDS011;31399;51.176;7.776;2022-09-09T07:41:46;2.85;;;0.43;;
45686;SDS011;31399;51.176;7.776;2022-09-09T07:44:14;6.43;;;1.17;;
45686;SDS011;31399;51.176;7.776;2022-09-09T07:46:44;5.35;;;0.77;;
45686;SDS011;31399;51.176;7.776;2022-09-09T07:49:11;7.00;;;1.10;;
45686;SDS011;31399;51.176;7.776;2022-09-09T07:51:39;6.45;;;0.88;;
45686;SDS011;31399;51.176;7.776;2022-09-09T07:54:11;5.15;;;0.70;;
45686;SDS011;31399;51.176;7.776;2022-09-09T07:56:39;4.38;;;0.70;;
45686;SDS011;31399;51.176;7.776;2022-09-09T07:59:06;8.23;;;0.63;;
45686;SDS011;31399;51.176;7.776;2022-09-09T08:01:34;3.70;;;0.50;;
45686;SDS011;31399;51.176;7.776;2022-09-09T08:04:06;3.72;;;1.17;;
45686;SDS011;31399;51.176;7.776;2022-09-09T08:06:51;3.63;;;0.90;;
45686;SDS011;31399;51.176;7.776;2022-09-09T08:09:25;4.50;;;0.82;;
45686;SDS011;31399;51.176;7.776;2022-09-09T08:11:56;7.95;;;0.85;;
45686;SDS011;31399;51.176;7.776;2022-09-09T08:14:23;7.18;;;1.40;;
45686;SDS011;31399;51.176;7.776;2022-09-09T08:16:50;3.95;;;0.60;;
45686;SDS011;31399;51.176;7.776;2022-09-09T08:19:20;5.68;;;0.98;;
45686;SDS011;31399;51.176;7.776;2022-09-09T08:21:47;3.83;;;0.60;;
45686;SDS011;31399;51.176;7.776;2022-09-09T08:24:15;7.60;;;0.98;;
45686;SDS011;31399;51.176;7.776;2022-09-09T08:26:43;2.58;;;0.63;;
45686;SDS011;31399;51.176;7.776;2022-09-09T08:29:11;4.13;;;1.05;;
45686;SDS011;31399;51.176;7.776;2022-09-09T08:32:13;8.98;;;0.88;;
45686;SDS011;31399;51.176;7.776;2022-09-09T08:34:32;5.10;;;1.08;;
45686;SDS011;31399;51.176;7.776;2022-09-09T08:36:58;3.78;;;0.60;;
45686;SDS011;31399;51.176;7.776;2022-09-09T08:39:25;3.10;;;0.60;;
45686;SDS011;31399;51.176;7.776;2022-09-09T08:52:55;4.57;;;0.75;;
45686;SDS011;31399;51.176;7.776;2022-09-09T08:56:10;4.38;;;0.57;;
45686;SDS011;31399;51.176;7.776;2022-09-09T08:58:18;3.40;;;0.63;;
45686;SDS011;31399;51.176;7.776;2022-09-09T09:09:05;3.72;;;0.60;;
45686;SDS011;31399;51.176;7.776;2022-09-09T09:11:40;3.63;;;0.70;;
45686;SDS011;31399;51.176;7.776;2022-09-09T09:14:18;8.15;;;0.77;;
45686;SDS011;31399;51.176;7.776;2022-09-09T09:16:54;4.15;;;0.80;;
45686;SDS011;31399;51.176;7.776;2022-09-09T09:19:23;3.13;;;0.50;;
45686;SDS011;31399;51.176;7.776;2022-09-09T09:22:00;3.83;;;0.68;;
45686;SDS011;31399;51.176;7.776;2022-09-09T09:24:53;2.15;;;0.55;;
45686;SDS011;31399;51.176;7.776;2022-09-09T09:27:31;3.88;;;0.60;;
45686;SDS011;31399;51.176;7.776;2022-09-09T09:30:00;8.13;;;0.70;;
45686;SDS011;31399;51.176;7.776;2022-09-09T09:33:02;4.60;;;0.85;;
45686;SDS011;31399;51.176;7.776;2022-09-09T09:35:31;2.55;;;0.47;;
45686;SDS011;31399;51.176;7.776;2022-09-09T09:38:11;3.70;;;0.70;;
45686;SDS011;31399;51.176;7.776;2022-09-09T09:41:04;6.60;;;1.00;;
45686;SDS011;31399;51.176;7.776;2022-09-09T09:43:31;5.65;;;0.98;;
45686;SDS011;31399;51.176;7.776;2022-09-09T09:46:00;6.88;;;0.43;;
45686;SDS011;31399;51.176;7.776;2022-09-09T09:48:43;4.68;;;0.70;;
45686;SDS011;31399;51.176;7.776;2022-09-09T09:51:12;1.80;;;0.50;;
45686;SDS011;31399;51.176;7.776;2022-09-09T09:53:42;6.80;;;1.13;;
45686;SDS011;31399;51.176;7.776;2022-09-09T09:56:09;2.78;;;0.50;;
45686;SDS011;31399;51.176;7.776;2022-09-09T10:01:45;1.90;;;0.52;;
45686;SDS011;31399;51.176;7.776;2022-09-09T10:04:15;2.47;;;0.40;;
45686;SDS011;31399;51.176;7.776;2022-09-09T10:06:45;4.30;;;0.47;;
45686;SDS011;31399;51.176;7.776;2022-09-09T10:09:25;3.35;;;0.50;;
45686;SDS011;31399;51.176;7.776;2022-09-09T10:17:29;2.20;;;0.40;;
45686;SDS011;31399;51.176;7.776;2022-09-09T10:23:10;1.70;;;0.57;;
45686;SDS011;31399;51.176;7.776;2022-09-09T10:40:25;2.47;;;0.50;;
45686;SDS011;31399;51.176;7.776;2022-09-09T10:43:14;3.08;;;0.50;;
45686;SDS011;31399;51.176;7.776;2022-09-09T10:48:42;2.78;;;0.40;;
45686;SDS011;31399;51.176;7.776;2022-09-09T10:51:15;1.98;;;0.40;;
45686;SDS011;31399;51.176;7.776;2022-09-09T10:56:34;2.45;;;0.43;;
45686;SDS011;31399;51.176;7.776;2022-09-09T10:59:07;2.58;;;0.47;;
45686;SDS011;31399;51.176;7.776;2022-09-09T11:01:42;1.23;;;0.32;;
45686;SDS011;31399;51.176;7.776;2022-09-09T11:04:13;2.45;;;0.30;;
45686;SDS011;31399;51.176;7.776;2022-09-09T11:07:15;2.58;;;0.30;;
45686;SDS011;31399;51.176;7.776;2022-09-09T11:09:50;0.82;;;0.10;;
45686;SDS011;31399;51.176;7.776;2022-09-09T11:12:19;1.27;;;0.20;;
45686;SDS011;31399;51.176;7.776;2022-09-09T11:14:51;2.47;;;0.40;;
45686;SDS011;31399;51.176;7.776;2022-09-09T11:17:23;1.77;;;0.63;;
45686;SDS011;31399;51.176;7.776;2022-09-09T11:19:53;2.90;;;0.55;;
45686;SDS011;31399;51.176;7.776;2022-09-09T11:38:47;2.92;;;0.57;;
45686;SDS011;31399;51.176;7.776;2022-09-09T11:41:20;2.08;;;0.30;;
45686;SDS011;31399;51.176;7.776;2022-09-09T11:43:53;1.42;;;0.30;;
45686;SDS011;31399;51.176;7.776;2022-09-09T11:46:20;2.03;;;0.22;;
45686;SDS011;31399;51.176;7.776;2022-09-09T11:48:59;2.83;;;0.80;;
45686;SDS011;31399;51.176;7.776;2022-09-09T11:51:31;2.13;;;0.20;;
45686;SDS011;31399;51.176;7.776;2022-09-09T11:53:59;1.52;;;0.40;;
45686;SDS011;31399;51.176;7.776;2022-09-09T11:56:41;2.22;;;0.52;;
45686;SDS011;31399;51.176;7.776;2022-09-09T11:59:20;3.67;;;0.20;;
45686;SDS011;31399;51.176;7.776;2022-09-09T12:04:49;1.55;;;0.45;;
45686;SDS011;31399;51.176;7.776;2022-09-09T12:07:27;4.32;;;0.50;;
45686;SDS011;31399;51.176;7.776;2022-09-09T12:10:03;2.97;;;0.38;;
45686;SDS011;31399;51.176;7.776;2022-09-09T12:12:34;6.57;;;0.50;;
45686;SDS011;31399;51.176;7.776;2022-09-09T12:17:45;4.32;;;0.40;;
45686;SDS011;31399;51.176;7.776;2022-09-09T12:28:47;5.50;;;0.32;;
45686;SDS011;31399;51.176;7.776;2022-09-09T12:34:11;1.95;;;0.20;;
45686;SDS011;31399;51.176;7.776;2022-09-09T12:39:27;4.22;;;0.38;;
45686;SDS011;31399;51.176;7.776;2022-09-09T12:41:57;2.65;;;0.38;;
45686;SDS011;31399;51.176;7.776;2022-09-09T12:44:24;2.17;;;0.60;;
45686;SDS011;31399;51.176;7.776;2022-09-09T12:46:54;1.20;;;0.32;;
45686;SDS011;31399;51.176;7.776;2022-09-09T12:49:30;1.02;;;0.22;;
45686;SDS011;31399;51.176;7.776;2022-09-09T12:52:04;2.75;;;0.40;;
45686;SDS011;31399;51.176;7.776;2022-09-09T12:54:36;2.47;;;0.50;;
45686;SDS011;31399;51.176;7.776;2022-09-09T12:57:03;2.72;;;0.57;;
45686;SDS011;31399;51.176;7.776;2022-09-09T12:59:38;2.22;;;0.45;;
45686;SDS011;31399;51.176;7.776;2022-09-09T13:02:25;3.50;;;0.30;;
45686;SDS011;31399;51.176;7.776;2022-09-09T13:04:53;2.90;;;0.43;;
45686;SDS011;31399;51.176;7.776;2022-09-09T13:07:21;1.67;;;0.38;;
45686;SDS011;31399;51.176;7.776;2022-09-09T13:09:48;1.17;;;0.50;;
45686;SDS011;31399;51.176;7.776;2022-09-09T13:12:19;1.67;;;0.32;;
45686;SDS011;31399;51.176;7.776;2022-09-09T13:14:47;1.65;;;0.40;;
45686;SDS011;31399;51.176;7.776;2022-09-09T13:17:26;2.33;;;0.20;;
45686;SDS011;31399;51.176;7.776;2022-09-09T13:19:56;0.93;;;0.20;;
45686;SDS011;31399;51.176;7.776;2022-09-09T13:30:00;2.30;;;0.40;;
45686;SDS011;31399;51.176;7.776;2022-09-09T13:32:27;2.08;;;0.40;;
45686;SDS011;31399;51.176;7.776;2022-09-09T13:34:55;1.08;;;0.40;;
45686;SDS011;31399;51.176;7.776;2022-09-09T13:37:31;1.48;;;0.30;;
45686;SDS011;31399;51.176;7.776;2022-09-09T13:40:03;3.70;;;0.40;;
45686;SDS011;31399;51.176;7.776;2022-09-09T13:42:33;2.15;;;0.20;;
45686;SDS011;31399;51.176;7.776;2022-09-09T13:45:04;1.52;;;0.30;;
45686;SDS011;31399;51.176;7.776;2022-09-09T13:47:35;1.52;;;0.30;;
45686;SDS011;31399;51.176;7.776;2022-09-09T13:52:49;2.35;;;0.30;;
45686;SDS011;31399;51.176;7.776;2022-09-09T13:55:17;1.88;;;0.20;;
45686;SDS011;31399;51.176;7.776;2022-09-09T13:58:18;1.55;;;0.30;;
45686;SDS011;31399;51.176;7.776;2022-09-09T14:00:41;2.55;;;0.40;;
45686;SDS011;31399;51.176;7.776;2022-09-09T14:03:08;2.40;;;0.30;;
45686;SDS011;31399;51.176;7.776;2022-09-09T14:05:34;0.70;;;0.20;;
45686;SDS011;31399;51.176;7.776;2022-09-09T14:08:04;2.00;;;0.40;;
45686;SDS011;31399;51.176;7.776;2022-09-09T14:10:32;1.27;;;0.30;;
45686;SDS011;31399;51.176;7.776;2022-09-09T14:12:58;2.40;;;0.30;;
45686;SDS011;31399;51.176;7.776;2022-09-09T14:15:25;4.93;;;1.00;;
45686;SDS011;31399;51.176;7.776;2022-09-09T14:17:53;6.65;;;0.40;;
45686;SDS011;31399;51.176;7.776;2022-09-09T14:20:19;1.77;;;0.38;;
45686;SDS011;31399;51.176;7.776;2022-09-09T14:22:48;1.42;;;0.30;;
45686;SDS011;31399;51.176;7.776;2022-09-09T14:25:14;2.83;;;0.40;;
45686;SDS011;31399;51.176;7.776;2022-09-09T14:27:41;2.03;;;0.30;;
45686;SDS011;31399;51.176;7.776;2022-09-09T14:30:08;1.00;;;0.35;;
45686;SDS011;31399;51.176;7.776;2022-09-09T14:32:35;3.08;;;0.65;;
45686;SDS011;31399;51.176;7.776;2022-09-09T14:35:02;3.80;;;0.50;;
45686;SDS011;31399;51.176;7.776;2022-09-09T14:37:29;3.55;;;0.45;;
45686;SDS011;31399;51.176;7.776;2022-09-09T14:39:57;1.60;;;0.43;;
45686;SDS011;31399;51.176;7.776;2022-09-09T14:42:24;2.63;;;0.30;;
45686;SDS011;31399;51.176;7.776;2022-09-09T14:44:50;5.68;;;0.50;;
45686;SDS011;31399;51.176;7.776;2022-09-09T14:47:17;2.70;;;0.40;;
45686;SDS011;31399;51.176;7.776;2022-09-09T14:49:43;3.72;;;0.88;;
45686;SDS011;31399;51.176;7.776;2022-09-09T14:52:12;4.68;;;0.82;;
45686;SDS011;31399;51.176;7.776;2022-09-09T14:54:39;2.42;;;0.30;;
45686;SDS011;31399;51.176;7.776;2022-09-09T14:57:06;1.05;;;0.30;;
45686;SDS011;31399;51.176;7.776;2022-09-09T14:59:32;2.78;;;0.28;;
45686;SDS011;31399;51.176;7.776;2022-09-09T15:02:00;3.03;;;0.40;;
45686;SDS011;31399;51.176;7.776;2022-09-09T15:04:30;2.72;;;0.30;;
45686;SDS011;31399;51.176;7.776;2022-09-09T15:06:56;1.00;;;0.20;;
45686;SDS011;31399;51.176;7.776;2022-09-09T15:09:24;2.75;;;0.70;;
45686;SDS011;31399;51.176;7.776;2022-09-09T15:11:51;2.05;;;0.47;;
45686;SDS011;31399;51.176;7.776;2022-09-09T15:14:17;1.05;;;0.30;;
45686;SDS011;31399;51.176;7.776;2022-09-09T15:16:50;1.60;;;0.40;;
45686;SDS011;31399;51.176;7.776;2022-09-09T15:19:17;1.30;;;0.40;;
45686;SDS011;31399;51.176;7.776;2022-09-09T15:21:43;4.65;;;0.20;;
45686;SDS011;31399;51.176;7.776;2022-09-09T15:24:10;2.95;;;0.57;;
45686;SDS011;31399;51.176;7.776;2022-09-09T15:26:37;1.95;;;0.38;;
45686;SDS011;31399;51.176;7.776;2022-09-09T15:29:07;3.85;;;0.30;;
45686;SDS011;31399;51.176;7.776;2022-09-09T15:31:34;2.33;;;0.38;;
45686;SDS011;31399;51.176;7.776;2022-09-09T15:34:02;3.22;;;0.40;;
45686;SDS011;31399;51.176;7.776;2022-09-09T15:38:58;2.70;;;0.40;;
45686;SDS011;31399;51.176;7.776;2022-09-09T15:41:26;4.63;;;0.30;;
45686;SDS011;31399;51.176;7.776;2022-09-09T15:43:53;2.17;;;0.40;;
45686;SDS011;31399;51.176;7.776;2022-09-09T15:46:35;3.65;;;0.60;;
45686;SDS011;31399;51.176;7.776;2022-09-09T15:49:07;3.50;;;0.40;;
45686;SDS011;31399;51.176;7.776;2022-09-09T15:51:44;1.27;;;0.30;;
45686;SDS011;31399;51.176;7.776;2022-09-09T15:54:13;1.90;;;0.30;;
45686;SDS011;31399;51.176;7.776;2022-09-09T15:56:43;3.30;;;0.32;;
45686;SDS011;31399;51.176;7.776;2022-09-09T15:59:10;2.20;;;0.40;;
45686;SDS011;31399;51.176;7.776;2022-09-09T16:01:37;2.17;;;0.30;;
45686;SDS011;31399;51.176;7.776;2022-09-09T16:04:05;2.17;;;0.30;;
45686;SDS011;31399;51.176;7.776;2022-09-09T16:06:32;3.67;;;0.43;;
45686;SDS011;31399;51.176;7.776;2022-09-09T16:08:59;2.00;;;0.20;;
45686;SDS011;31399;51.176;7.776;2022-09-09T16:11:29;0.85;;;0.20;;
45686;SDS011;31399;51.176;7.776;2022-09-09T16:13:58;1.13;;;0.30;;
45686;SDS011;31399;51.176;7.776;2022-09-09T16:16:26;2.50;;;0.30;;
45686;SDS011;31399;51.176;7.776;2022-09-09T16:18:55;4.53;;;0.63;;
45686;SDS011;31399;51.176;7.776;2022-09-09T16:21:28;4.28;;;0.30;;
45686;SDS011;31399;51.176;7.776;2022-09-09T16:23:59;2.95;;;0.28;;
45686;SDS011;31399;51.176;7.776;2022-09-09T16:26:26;4.82;;;0.70;;
45686;SDS011;31399;51.176;7.776;2022-09-09T16:28:54;2.67;;;0.60;;
45686;SDS011;31399;51.176;7.776;2022-09-09T16:31:22;7.32;;;0.57;;
45686;SDS011;31399;51.176;7.776;2022-09-09T16:33:49;1.05;;;0.35;;
45686;SDS011;31399;51.176;7.776;2022-09-09T16:36:17;2.90;;;0.70;;
45686;SDS011;31399;51.176;7.776;2022-09-09T16:38:47;3.88;;;0.57;;
45686;SDS011;31399;51.176;7.776;2022-09-09T16:41:14;3.80;;;0.40;;
45686;SDS011;31399;51.176;7.776;2022-09-09T16:43:41;1.42;;;0.40;;
45686;SDS011;31399;51.176;7.776;2022-09-09T16:46:14;1.75;;;0.43;;
45686;SDS011;31399;51.176;7.776;2022-09-09T16:48:43;2.75;;;0.47;;
45686;SDS011;31399;51.176;7.776;2022-09-09T16:51:17;0.77;;;0.30;;
45686;SDS011;31399;51.176;7.776;2022-09-09T16:53:45;2.20;;;0.50;;
45686;SDS011;31399;51.176;7.776;2022-09-09T16:56:13;2.22;;;0.55;;
45686;SDS011;31399;51.176;7.776;2022-09-09T16:58:41;4.15;;;0.50;;
45686;SDS011;31399;51.176;7.776;2022-09-09T17:01:09;0.93;;;0.30;;
45686;SDS011;31399;51.176;7.776;2022-09-09T17:03:37;3.08;;;0.20;;
45686;SDS011;31399;51.176;7.776;2022-09-09T17:06:08;0.75;;;0.32;;
45686;SDS011;31399;51.176;7.776;2022-09-09T17:08:35;0.30;;;0.22;;
45686;SDS011;31399;51.176;7.776;2022-09-09T17:11:02;1.77;;;0.30;;
45686;SDS011;31399;51.176;7.776;2022-09-09T17:13:29;0.30;;;0.10;;
45686;SDS011;31399;51.176;7.776;2022-09-09T17:15:56;1.08;;;0.10;;
45686;SDS011;31399;51.176;7.776;2022-09-09T17:18:28;0.40;;;0.20;;
45686;SDS011;31399;51.176;7.776;2022-09-09T17:20:54;1.75;;;0.20;;
45686;SDS011;31399;51.176;7.776;2022-09-09T17:23:21;0.60;;;0.20;;
45686;SDS011;31399;51.176;7.776;2022-09-09T17:25:58;0.15;;;0.10;;
45686;SDS011;31399;51.176;7.776;2022-09-09T17:28:26;0.77;;;0.50;;
45686;SDS011;31399;51.176;7.776;2022-09-09T17:30:57;0.93;;;0.25;;
45686;SDS011;31399;51.176;7.776;2022-09-09T17:33:27;1.17;;;0.10;;
45686;SDS011;31399;51.176;7.776;2022-09-09T17:35:58;0.43;;;0.20;;
45686;SDS011;31399;51.176;7.776;2022-09-09T17:38:26;0.32;;;0.20;;
45686;SDS011;31399;51.176;7.776;2022-09-09T17:41:28;4.10;;;0.20;;
45686;SDS011;31399;51.176;7.776;2022-09-09T17:43:48;1.10;;;0.30;;
45686;SDS011;31399;51.176;7.776;2022-09-09T17:46:19;1.05;;;0.40;;
45686;SDS011;31399;51.176;7.776;2022-09-09T17:48:49;1.77;;;0.30;;
45686;SDS011;31399;51.176;7.776;2022-09-09T17:51:20;1.33;;;0.43;;